sensor_id;sensor_type;location;lat;lon;timestamp;P1;durP1;ratioP1;P2;durP2;ratioP2
17917;SDS011;9084;50.956;3.106;2023-07-29T00:01:36;2.92;;;1.67;;
17917;SDS011;9084;50.956;3.106;2023-07-29T00:04:04;3.53;;;1.95;;
17917;SDS011;9084;50.956;3.106;2023-07-29T00:06:33;2.45;;;1.58;;
17917;SDS011;9084;50.956;3.106;2023-07-29T00:09:02;2.33;;;1.80;;
17917;SDS011;9084;50.956;3.106;2023-07-29T00:11:30;1.98;;;1.42;;
17917;SDS011;9084;50.956;3.106;2023-07-29T00:13:58;1.95;;;1.85;;
17917;SDS011;9084;50.956;3.106;2023-07-29T00:16:27;1.58;;;1.42;;
17917;SDS011;9084;50.956;3.106;2023-07-29T00:18:55;1.77;;;1.60;;
17917;SDS011;9084;50.956;3.106;2023-07-29T00:21:23;2.13;;;1.50;;
17917;SDS011;9084;50.956;3.106;2023-07-29T00:23:51;1.85;;;1.50;;
17917;SDS011;9084;50.956;3.106;2023-07-29T00:26:19;1.70;;;1.55;;
17917;SDS011;9084;50.956;3.106;2023-07-29T00:28:47;3.05;;;1.98;;
17917;SDS011;9084;50.956;3.106;2023-07-29T00:31:12;2.13;;;1.92;;
17917;SDS011;9084;50.956;3.106;2023-07-29T00:33:40;2.58;;;1.92;;
17917;SDS011;9084;50.956;3.106;2023-07-29T00:36:06;1.75;;;1.65;;
17917;SDS011;9084;50.956;3.106;2023-07-29T00:38:34;2.20;;;2.00;;
17917;SDS011;9084;50.956;3.106;2023-07-29T00:41:00;2.42;;;1.83;;
17917;SDS011;9084;50.956;3.106;2023-07-29T00:43:33;2.47;;;2.25;;
17917;SDS011;9084;50.956;3.106;2023-07-29T00:46:03;2.20;;;2.00;;
17917;SDS011;9084;50.956;3.106;2023-07-29T00:48:30;3.60;;;2.40;;
17917;SDS011;9084;50.956;3.106;2023-07-29T00:50:55;2.40;;;2.15;;
17917;SDS011;9084;50.956;3.106;2023-07-29T00:53:21;2.22;;;2.00;;
17917;SDS011;9084;50.956;3.106;2023-07-29T00:55:47;3.10;;;1.88;;
17917;SDS011;9084;50.956;3.106;2023-07-29T00:58:13;5.53;;;2.58;;
17917;SDS011;9084;50.956;3.106;2023-07-29T01:00:39;3.50;;;2.17;;
17917;SDS011;9084;50.956;3.106;2023-07-29T01:03:05;2.30;;;1.98;;
17917;SDS011;9084;50.956;3.106;2023-07-29T01:05:33;2.83;;;2.10;;
17917;SDS011;9084;50.956;3.106;2023-07-29T01:08:09;3.20;;;2.03;;
17917;SDS011;9084;50.956;3.106;2023-07-29T01:10:51;3.03;;;2.55;;
17917;SDS011;9084;50.956;3.106;2023-07-29T01:13:37;2.10;;;1.90;;
17917;SDS011;9084;50.956;3.106;2023-07-29T01:16:14;2.17;;;1.85;;
17917;SDS011;9084;50.956;3.106;2023-07-29T01:18:47;2.63;;;2.28;;
17917;SDS011;9084;50.956;3.106;2023-07-29T01:21:17;3.40;;;1.92;;
17917;SDS011;9084;50.956;3.106;2023-07-29T01:23:47;2.47;;;2.28;;
17917;SDS011;9084;50.956;3.106;2023-07-29T01:26:18;3.25;;;2.28;;
17917;SDS011;9084;50.956;3.106;2023-07-29T01:28:46;3.67;;;1.80;;
17917;SDS011;9084;50.956;3.106;2023-07-29T01:33:46;3.30;;;2.45;;
17917;SDS011;9084;50.956;3.106;2023-07-29T01:36:21;1.88;;;1.77;;
17917;SDS011;9084;50.956;3.106;2023-07-29T01:38:51;2.95;;;2.65;;
17917;SDS011;9084;50.956;3.106;2023-07-29T01:41:18;3.33;;;2.83;;
17917;SDS011;9084;50.956;3.106;2023-07-29T01:43:45;2.83;;;2.40;;
17917;SDS011;9084;50.956;3.106;2023-07-29T01:46:16;2.05;;;1.88;;
17917;SDS011;9084;50.956;3.106;2023-07-29T01:48:45;3.28;;;2.03;;
17917;SDS011;9084;50.956;3.106;2023-07-29T01:51:11;2.50;;;2.10;;
17917;SDS011;9084;50.956;3.106;2023-07-29T01:53:39;2.60;;;2.40;;
17917;SDS011;9084;50.956;3.106;2023-07-29T01:56:05;2.58;;;2.25;;
17917;SDS011;9084;50.956;3.106;2023-07-29T01:58:31;3.50;;;1.85;;
17917;SDS011;9084;50.956;3.106;2023-07-29T02:00:56;6.63;;;2.50;;
17917;SDS011;9084;50.956;3.106;2023-07-29T02:03:22;2.83;;;2.00;;
17917;SDS011;9084;50.956;3.106;2023-07-29T02:05:48;2.10;;;1.90;;
17917;SDS011;9084;50.956;3.106;2023-07-29T02:08:13;2.42;;;2.22;;
17917;SDS011;9084;50.956;3.106;2023-07-29T02:10:39;2.28;;;2.10;;
17917;SDS011;9084;50.956;3.106;2023-07-29T02:13:05;3.25;;;2.45;;
17917;SDS011;9084;50.956;3.106;2023-07-29T02:15:31;2.95;;;2.35;;
17917;SDS011;9084;50.956;3.106;2023-07-29T02:17:57;3.08;;;2.30;;
17917;SDS011;9084;50.956;3.106;2023-07-29T02:20:24;3.75;;;2.00;;
17917;SDS011;9084;50.956;3.106;2023-07-29T02:22:52;2.22;;;2.03;;
17917;SDS011;9084;50.956;3.106;2023-07-29T02:25:17;3.58;;;2.38;;
17917;SDS011;9084;50.956;3.106;2023-07-29T02:27:43;2.33;;;1.98;;
17917;SDS011;9084;50.956;3.106;2023-07-29T02:30:13;2.38;;;2.08;;
17917;SDS011;9084;50.956;3.106;2023-07-29T02:32:39;4.07;;;2.20;;
17917;SDS011;9084;50.956;3.106;2023-07-29T02:35:05;2.58;;;2.22;;
17917;SDS011;9084;50.956;3.106;2023-07-29T02:37:31;2.88;;;1.83;;
17917;SDS011;9084;50.956;3.106;2023-07-29T02:39:56;2.42;;;2.20;;
17917;SDS011;9084;50.956;3.106;2023-07-29T02:42:22;4.22;;;2.55;;
17917;SDS011;9084;50.956;3.106;2023-07-29T02:44:48;2.50;;;2.28;;
17917;SDS011;9084;50.956;3.106;2023-07-29T02:47:15;2.15;;;1.95;;
17917;SDS011;9084;50.956;3.106;2023-07-29T02:49:41;2.20;;;2.00;;
17917;SDS011;9084;50.956;3.106;2023-07-29T02:52:07;2.80;;;2.45;;
17917;SDS011;9084;50.956;3.106;2023-07-29T02:54:32;2.40;;;2.08;;
17917;SDS011;9084;50.956;3.106;2023-07-29T02:57:05;2.20;;;1.80;;
17917;SDS011;9084;50.956;3.106;2023-07-29T02:59:31;4.13;;;2.03;;
17917;SDS011;9084;50.956;3.106;2023-07-29T03:01:57;2.50;;;1.92;;
17917;SDS011;9084;50.956;3.106;2023-07-29T03:04:22;4.95;;;2.45;;
17917;SDS011;9084;50.956;3.106;2023-07-29T03:06:48;4.10;;;2.40;;
17917;SDS011;9084;50.956;3.106;2023-07-29T03:09:14;3.60;;;2.13;;
17917;SDS011;9084;50.956;3.106;2023-07-29T03:11:44;2.55;;;1.83;;
17917;SDS011;9084;50.956;3.106;2023-07-29T03:14:11;2.55;;;2.35;;
17917;SDS011;9084;50.956;3.106;2023-07-29T03:16:38;2.45;;;1.92;;
17917;SDS011;9084;50.956;3.106;2023-07-29T03:19:04;2.42;;;2.08;;
17917;SDS011;9084;50.956;3.106;2023-07-29T03:21:31;2.28;;;2.08;;
17917;SDS011;9084;50.956;3.106;2023-07-29T03:23:59;2.75;;;2.42;;
17917;SDS011;9084;50.956;3.106;2023-07-29T03:26:27;2.30;;;2.10;;
17917;SDS011;9084;50.956;3.106;2023-07-29T03:28:52;3.55;;;2.47;;
17917;SDS011;9084;50.956;3.106;2023-07-29T03:31:18;2.97;;;2.25;;
17917;SDS011;9084;50.956;3.106;2023-07-29T03:33:44;2.30;;;2.00;;
17917;SDS011;9084;50.956;3.106;2023-07-29T03:36:14;2.33;;;2.10;;
17917;SDS011;9084;50.956;3.106;2023-07-29T03:38:40;2.75;;;2.10;;
17917;SDS011;9084;50.956;3.106;2023-07-29T03:41:07;3.55;;;2.20;;
17917;SDS011;9084;50.956;3.106;2023-07-29T03:43:33;4.05;;;2.20;;
17917;SDS011;9084;50.956;3.106;2023-07-29T03:46:01;2.72;;;2.33;;
17917;SDS011;9084;50.956;3.106;2023-07-29T03:48:27;2.53;;;2.17;;
17917;SDS011;9084;50.956;3.106;2023-07-29T03:50:53;4.13;;;2.30;;
17917;SDS011;9084;50.956;3.106;2023-07-29T03:53:19;2.45;;;2.25;;
17917;SDS011;9084;50.956;3.106;2023-07-29T03:55:47;3.58;;;2.50;;
17917;SDS011;9084;50.956;3.106;2023-07-29T03:58:15;3.67;;;2.50;;
17917;SDS011;9084;50.956;3.106;2023-07-29T04:00:43;2.53;;;2.30;;
17917;SDS011;9084;50.956;3.106;2023-07-29T04:03:11;2.70;;;2.50;;
17917;SDS011;9084;50.956;3.106;2023-07-29T04:05:36;2.58;;;2.38;;
17917;SDS011;9084;50.956;3.106;2023-07-29T04:08:02;2.58;;;2.38;;
17917;SDS011;9084;50.956;3.106;2023-07-29T04:10:32;3.63;;;2.63;;
17917;SDS011;9084;50.956;3.106;2023-07-29T04:13:03;3.17;;;2.53;;
17917;SDS011;9084;50.956;3.106;2023-07-29T04:15:30;2.40;;;2.20;;
17917;SDS011;9084;50.956;3.106;2023-07-29T04:17:56;3.42;;;2.15;;
17917;SDS011;9084;50.956;3.106;2023-07-29T04:20:22;4.55;;;2.38;;
17917;SDS011;9084;50.956;3.106;2023-07-29T04:22:50;4.97;;;3.05;;
17917;SDS011;9084;50.956;3.106;2023-07-29T04:25:15;2.88;;;2.53;;
17917;SDS011;9084;50.956;3.106;2023-07-29T04:27:43;3.55;;;2.50;;
17917;SDS011;9084;50.956;3.106;2023-07-29T04:30:09;2.33;;;2.13;;
17917;SDS011;9084;50.956;3.106;2023-07-29T04:32:38;2.78;;;2.45;;
17917;SDS011;9084;50.956;3.106;2023-07-29T04:35:03;3.25;;;2.72;;
17917;SDS011;9084;50.956;3.106;2023-07-29T04:37:32;2.47;;;2.28;;
17917;SDS011;9084;50.956;3.106;2023-07-29T04:39:59;2.72;;;2.47;;
17917;SDS011;9084;50.956;3.106;2023-07-29T04:42:25;2.80;;;2.60;;
17917;SDS011;9084;50.956;3.106;2023-07-29T04:44:51;3.65;;;2.38;;
17917;SDS011;9084;50.956;3.106;2023-07-29T04:47:16;4.78;;;2.15;;
17917;SDS011;9084;50.956;3.106;2023-07-29T04:49:42;2.90;;;2.10;;
17917;SDS011;9084;50.956;3.106;2023-07-29T04:52:09;2.25;;;2.05;;
17917;SDS011;9084;50.956;3.106;2023-07-29T04:54:35;2.28;;;1.98;;
17917;SDS011;9084;50.956;3.106;2023-07-29T04:57:01;2.33;;;1.90;;
17917;SDS011;9084;50.956;3.106;2023-07-29T04:59:26;3.13;;;1.63;;
17917;SDS011;9084;50.956;3.106;2023-07-29T05:01:52;2.65;;;1.98;;
17917;SDS011;9084;50.956;3.106;2023-07-29T05:04:20;3.88;;;1.92;;
17917;SDS011;9084;50.956;3.106;2023-07-29T05:06:46;1.90;;;1.70;;
17917;SDS011;9084;50.956;3.106;2023-07-29T05:11:42;3.00;;;1.85;;
17917;SDS011;9084;50.956;3.106;2023-07-29T05:14:10;1.85;;;1.50;;
17917;SDS011;9084;50.956;3.106;2023-07-29T05:16:36;2.03;;;1.80;;
17917;SDS011;9084;50.956;3.106;2023-07-29T05:19:04;2.17;;;1.55;;
17917;SDS011;9084;50.956;3.106;2023-07-29T05:21:32;2.67;;;2.00;;
17917;SDS011;9084;50.956;3.106;2023-07-29T05:24:00;2.00;;;1.85;;
17917;SDS011;9084;50.956;3.106;2023-07-29T05:26:26;1.83;;;1.55;;
17917;SDS011;9084;50.956;3.106;2023-07-29T05:28:54;1.45;;;1.35;;
17917;SDS011;9084;50.956;3.106;2023-07-29T05:31:20;1.98;;;1.60;;
17917;SDS011;9084;50.956;3.106;2023-07-29T05:33:46;1.45;;;1.35;;
17917;SDS011;9084;50.956;3.106;2023-07-29T05:36:14;1.75;;;1.60;;
17917;SDS011;9084;50.956;3.106;2023-07-29T05:38:40;2.58;;;1.67;;
17917;SDS011;9084;50.956;3.106;2023-07-29T05:41:06;2.00;;;1.30;;
17917;SDS011;9084;50.956;3.106;2023-07-29T05:43:32;1.40;;;1.30;;
17917;SDS011;9084;50.956;3.106;2023-07-29T05:45:57;2.47;;;1.77;;
17917;SDS011;9084;50.956;3.106;2023-07-29T05:48:23;3.15;;;1.40;;
17917;SDS011;9084;50.956;3.106;2023-07-29T05:50:49;1.38;;;1.23;;
17917;SDS011;9084;50.956;3.106;2023-07-29T05:53:15;1.38;;;1.27;;
17917;SDS011;9084;50.956;3.106;2023-07-29T05:55:40;1.38;;;1.20;;
17917;SDS011;9084;50.956;3.106;2023-07-29T05:58:08;1.65;;;1.20;;
17917;SDS011;9084;50.956;3.106;2023-07-29T06:00:36;2.33;;;1.35;;
17917;SDS011;9084;50.956;3.106;2023-07-29T06:03:02;1.33;;;1.17;;
17917;SDS011;9084;50.956;3.106;2023-07-29T06:05:27;1.55;;;1.23;;
17917;SDS011;9084;50.956;3.106;2023-07-29T06:07:55;1.17;;;1.08;;
17917;SDS011;9084;50.956;3.106;2023-07-29T06:10:21;1.42;;;1.20;;
17917;SDS011;9084;50.956;3.106;2023-07-29T06:12:49;1.60;;;1.00;;
17917;SDS011;9084;50.956;3.106;2023-07-29T06:15:15;1.95;;;1.42;;
17917;SDS011;9084;50.956;3.106;2023-07-29T06:17:46;2.75;;;1.30;;
17917;SDS011;9084;50.956;3.106;2023-07-29T06:20:12;1.45;;;1.13;;
17917;SDS011;9084;50.956;3.106;2023-07-29T06:22:40;1.50;;;1.40;;
17917;SDS011;9084;50.956;3.106;2023-07-29T06:25:06;1.60;;;1.17;;
17917;SDS011;9084;50.956;3.106;2023-07-29T06:27:32;1.70;;;1.38;;
17917;SDS011;9084;50.956;3.106;2023-07-29T06:30:00;2.25;;;1.30;;
17917;SDS011;9084;50.956;3.106;2023-07-29T06:32:26;1.90;;;1.25;;
17917;SDS011;9084;50.956;3.106;2023-07-29T06:34:53;2.33;;;1.23;;
17917;SDS011;9084;50.956;3.106;2023-07-29T06:37:19;2.53;;;1.20;;
17917;SDS011;9084;50.956;3.106;2023-07-29T06:39:45;1.00;;;0.90;;
17917;SDS011;9084;50.956;3.106;2023-07-29T06:42:11;1.35;;;1.25;;
17917;SDS011;9084;50.956;3.106;2023-07-29T06:44:36;3.28;;;1.35;;
17917;SDS011;9084;50.956;3.106;2023-07-29T06:47:02;1.95;;;0.98;;
17917;SDS011;9084;50.956;3.106;2023-07-29T06:49:28;1.00;;;0.90;;
17917;SDS011;9084;50.956;3.106;2023-07-29T06:51:54;1.20;;;1.10;;
17917;SDS011;9084;50.956;3.106;2023-07-29T06:54:22;1.67;;;1.00;;
17917;SDS011;9084;50.956;3.106;2023-07-29T06:56:50;1.40;;;1.30;;
17917;SDS011;9084;50.956;3.106;2023-07-29T06:59:15;1.10;;;1.00;;
17917;SDS011;9084;50.956;3.106;2023-07-29T07:01:41;2.17;;;1.02;;
17917;SDS011;9084;50.956;3.106;2023-07-29T07:04:07;3.67;;;1.20;;
17917;SDS011;9084;50.956;3.106;2023-07-29T07:06:32;4.10;;;1.20;;
17917;SDS011;9084;50.956;3.106;2023-07-29T07:08:58;1.00;;;1.00;;
17917;SDS011;9084;50.956;3.106;2023-07-29T07:11:28;1.17;;;1.13;;
17917;SDS011;9084;50.956;3.106;2023-07-29T07:13:54;1.30;;;1.20;;
17917;SDS011;9084;50.956;3.106;2023-07-29T07:16:21;1.10;;;1.00;;
17917;SDS011;9084;50.956;3.106;2023-07-29T07:18:47;2.85;;;1.10;;
17917;SDS011;9084;50.956;3.106;2023-07-29T07:21:13;1.35;;;1.10;;
17917;SDS011;9084;50.956;3.106;2023-07-29T07:23:39;4.93;;;1.30;;
17917;SDS011;9084;50.956;3.106;2023-07-29T07:26:09;1.55;;;1.13;;
17917;SDS011;9084;50.956;3.106;2023-07-29T07:28:34;1.27;;;1.00;;
17917;SDS011;9084;50.956;3.106;2023-07-29T07:31:02;1.42;;;1.13;;
17917;SDS011;9084;50.956;3.106;2023-07-29T07:33:28;1.42;;;1.00;;
17917;SDS011;9084;50.956;3.106;2023-07-29T07:35:54;1.52;;;1.00;;
17917;SDS011;9084;50.956;3.106;2023-07-29T07:38:21;1.42;;;1.00;;
17917;SDS011;9084;50.956;3.106;2023-07-29T07:40:58;1.25;;;1.00;;
17917;SDS011;9084;50.956;3.106;2023-07-29T07:43:26;1.88;;;1.27;;
17917;SDS011;9084;50.956;3.106;2023-07-29T07:45:57;2.72;;;1.13;;
17917;SDS011;9084;50.956;3.106;2023-07-29T07:48:25;1.65;;;0.98;;
17917;SDS011;9084;50.956;3.106;2023-07-29T07:50:54;1.40;;;1.15;;
17917;SDS011;9084;50.956;3.106;2023-07-29T07:53:20;2.80;;;1.30;;
17917;SDS011;9084;50.956;3.106;2023-07-29T07:55:50;2.38;;;1.13;;
17917;SDS011;9084;50.956;3.106;2023-07-29T07:58:16;2.45;;;1.40;;
17917;SDS011;9084;50.956;3.106;2023-07-29T08:00:41;2.35;;;1.30;;
17917;SDS011;9084;50.956;3.106;2023-07-29T08:03:08;1.35;;;1.25;;
17917;SDS011;9084;50.956;3.106;2023-07-29T08:05:38;1.23;;;1.13;;
17917;SDS011;9084;50.956;3.106;2023-07-29T08:08:06;2.13;;;1.13;;
17917;SDS011;9084;50.956;3.106;2023-07-29T08:10:31;1.80;;;1.67;;
17917;SDS011;9084;50.956;3.106;2023-07-29T08:12:57;1.95;;;1.40;;
17917;SDS011;9084;50.956;3.106;2023-07-29T08:15:23;1.40;;;1.30;;
17917;SDS011;9084;50.956;3.106;2023-07-29T08:17:48;3.30;;;1.60;;
17917;SDS011;9084;50.956;3.106;2023-07-29T08:20:14;1.77;;;1.38;;
17917;SDS011;9084;50.956;3.106;2023-07-29T08:22:40;3.25;;;1.70;;
17917;SDS011;9084;50.956;3.106;2023-07-29T08:25:05;1.20;;;1.10;;
17917;SDS011;9084;50.956;3.106;2023-07-29T08:27:33;1.95;;;1.20;;
17917;SDS011;9084;50.956;3.106;2023-07-29T08:30:02;1.50;;;1.40;;
17917;SDS011;9084;50.956;3.106;2023-07-29T08:32:30;1.42;;;1.33;;
17917;SDS011;9084;50.956;3.106;2023-07-29T08:34:55;1.40;;;1.30;;
17917;SDS011;9084;50.956;3.106;2023-07-29T08:37:21;2.42;;;2.03;;
17917;SDS011;9084;50.956;3.106;2023-07-29T08:39:47;2.75;;;1.50;;
17917;SDS011;9084;50.956;3.106;2023-07-29T08:42:12;3.92;;;1.50;;
17917;SDS011;9084;50.956;3.106;2023-07-29T08:44:41;1.83;;;1.45;;
17917;SDS011;9084;50.956;3.106;2023-07-29T08:47:08;2.25;;;1.50;;
17917;SDS011;9084;50.956;3.106;2023-07-29T08:49:38;2.53;;;1.50;;
17917;SDS011;9084;50.956;3.106;2023-07-29T08:52:06;3.95;;;1.70;;
17917;SDS011;9084;50.956;3.106;2023-07-29T08:54:32;1.38;;;1.27;;
17917;SDS011;9084;50.956;3.106;2023-07-29T08:56:58;1.58;;;1.48;;
17917;SDS011;9084;50.956;3.106;2023-07-29T08:59:27;2.15;;;1.85;;
17917;SDS011;9084;50.956;3.106;2023-07-29T09:01:54;2.15;;;1.50;;
17917;SDS011;9084;50.956;3.106;2023-07-29T09:04:22;1.50;;;1.40;;
17917;SDS011;9084;50.956;3.106;2023-07-29T09:06:52;1.70;;;1.60;;
17917;SDS011;9084;50.956;3.106;2023-07-29T09:09:20;2.33;;;1.95;;
17917;SDS011;9084;50.956;3.106;2023-07-29T09:11:47;3.75;;;1.70;;
17917;SDS011;9084;50.956;3.106;2023-07-29T09:14:13;3.05;;;1.48;;
17917;SDS011;9084;50.956;3.106;2023-07-29T09:16:39;2.53;;;1.52;;
17917;SDS011;9084;50.956;3.106;2023-07-29T09:19:07;1.65;;;1.20;;
17917;SDS011;9084;50.956;3.106;2023-07-29T09:21:33;1.27;;;1.17;;
17917;SDS011;9084;50.956;3.106;2023-07-29T09:24:02;1.33;;;1.20;;
17917;SDS011;9084;50.956;3.106;2023-07-29T09:26:29;1.50;;;1.40;;
17917;SDS011;9084;50.956;3.106;2023-07-29T09:28:58;1.42;;;1.33;;
17917;SDS011;9084;50.956;3.106;2023-07-29T09:31:25;1.30;;;1.20;;
17917;SDS011;9084;50.956;3.106;2023-07-29T09:33:58;1.40;;;1.30;;
17917;SDS011;9084;50.956;3.106;2023-07-29T09:36:26;2.28;;;1.20;;
17917;SDS011;9084;50.956;3.106;2023-07-29T09:38:53;1.15;;;1.13;;
17917;SDS011;9084;50.956;3.106;2023-07-29T09:41:21;1.60;;;1.50;;
17917;SDS011;9084;50.956;3.106;2023-07-29T09:43:57;2.03;;;1.83;;
17917;SDS011;9084;50.956;3.106;2023-07-29T09:46:33;2.42;;;1.70;;
17917;SDS011;9084;50.956;3.106;2023-07-29T09:49:01;1.90;;;1.17;;
17917;SDS011;9084;50.956;3.106;2023-07-29T09:51:38;2.22;;;1.38;;
17917;SDS011;9084;50.956;3.106;2023-07-29T09:54:07;2.40;;;1.55;;
17917;SDS011;9084;50.956;3.106;2023-07-29T09:56:34;1.30;;;1.20;;
17917;SDS011;9084;50.956;3.106;2023-07-29T09:59:06;1.85;;;1.65;;
17917;SDS011;9084;50.956;3.106;2023-07-29T10:01:34;2.05;;;1.42;;
17917;SDS011;9084;50.956;3.106;2023-07-29T10:04:01;1.85;;;1.20;;
17917;SDS011;9084;50.956;3.106;2023-07-29T10:06:28;1.35;;;1.25;;
17917;SDS011;9084;50.956;3.106;2023-07-29T10:08:57;1.92;;;1.23;;
17917;SDS011;9084;50.956;3.106;2023-07-29T10:11:24;1.80;;;1.20;;
17917;SDS011;9084;50.956;3.106;2023-07-29T10:13:50;2.03;;;1.38;;
17917;SDS011;9084;50.956;3.106;2023-07-29T10:16:20;1.33;;;1.23;;
17917;SDS011;9084;50.956;3.106;2023-07-29T10:18:47;1.50;;;1.40;;
17917;SDS011;9084;50.956;3.106;2023-07-29T10:21:18;1.42;;;1.33;;
17917;SDS011;9084;50.956;3.106;2023-07-29T10:23:49;1.70;;;1.45;;
17917;SDS011;9084;50.956;3.106;2023-07-29T10:26:19;1.75;;;1.20;;
17917;SDS011;9084;50.956;3.106;2023-07-29T10:28:49;1.92;;;1.40;;
17917;SDS011;9084;50.956;3.106;2023-07-29T10:31:20;1.48;;;1.38;;
17917;SDS011;9084;50.956;3.106;2023-07-29T10:33:48;1.27;;;1.17;;
17917;SDS011;9084;50.956;3.106;2023-07-29T10:36:16;1.27;;;1.17;;
17917;SDS011;9084;50.956;3.106;2023-07-29T10:38:42;1.50;;;1.30;;
17917;SDS011;9084;50.956;3.106;2023-07-29T10:41:08;2.45;;;1.13;;
17917;SDS011;9084;50.956;3.106;2023-07-29T10:43:35;1.30;;;1.10;;
17917;SDS011;9084;50.956;3.106;2023-07-29T10:46:22;2.95;;;1.25;;
17917;SDS011;9084;50.956;3.106;2023-07-29T10:53:52;1.30;;;1.15;;
17917;SDS011;9084;50.956;3.106;2023-07-29T10:56:34;1.92;;;1.35;;
17917;SDS011;9084;50.956;3.106;2023-07-29T11:01:43;1.50;;;1.30;;
17917;SDS011;9084;50.956;3.106;2023-07-29T11:09:42;4.05;;;1.20;;
17917;SDS011;9084;50.956;3.106;2023-07-29T11:15:03;1.00;;;0.77;;
17917;SDS011;9084;50.956;3.106;2023-07-29T11:17:43;1.10;;;0.68;;
17917;SDS011;9084;50.956;3.106;2023-07-29T11:20:16;1.00;;;0.85;;
17917;SDS011;9084;50.956;3.106;2023-07-29T11:22:42;2.55;;;1.08;;
17917;SDS011;9084;50.956;3.106;2023-07-29T11:25:09;1.67;;;1.02;;
17917;SDS011;9084;50.956;3.106;2023-07-29T11:27:39;1.40;;;1.13;;
17917;SDS011;9084;50.956;3.106;2023-07-29T11:30:06;1.52;;;0.80;;
17917;SDS011;9084;50.956;3.106;2023-07-29T11:32:36;2.80;;;0.85;;
17917;SDS011;9084;50.956;3.106;2023-07-29T11:35:11;1.00;;;0.70;;
17917;SDS011;9084;50.956;3.106;2023-07-29T11:37:37;1.63;;;0.80;;
17917;SDS011;9084;50.956;3.106;2023-07-29T11:40:08;0.90;;;0.80;;
17917;SDS011;9084;50.956;3.106;2023-07-29T11:42:38;0.70;;;0.55;;
17917;SDS011;9084;50.956;3.106;2023-07-29T11:45:04;0.60;;;0.60;;
17917;SDS011;9084;50.956;3.106;2023-07-29T11:47:33;0.90;;;0.60;;
17917;SDS011;9084;50.956;3.106;2023-07-29T11:50:05;0.75;;;0.55;;
17917;SDS011;9084;50.956;3.106;2023-07-29T11:52:35;0.70;;;0.70;;
17917;SDS011;9084;50.956;3.106;2023-07-29T11:55:04;1.10;;;0.75;;
17917;SDS011;9084;50.956;3.106;2023-07-29T11:57:31;1.15;;;0.60;;
17917;SDS011;9084;50.956;3.106;2023-07-29T11:59:59;2.20;;;0.82;;
17917;SDS011;9084;50.956;3.106;2023-07-29T12:02:36;0.80;;;0.50;;
17917;SDS011;9084;50.956;3.106;2023-07-29T12:05:08;1.05;;;0.88;;
17917;SDS011;9084;50.956;3.106;2023-07-29T12:07:35;0.80;;;0.57;;
17917;SDS011;9084;50.956;3.106;2023-07-29T12:10:03;2.75;;;0.70;;
17917;SDS011;9084;50.956;3.106;2023-07-29T12:12:29;2.03;;;0.90;;
17917;SDS011;9084;50.956;3.106;2023-07-29T12:14:55;0.70;;;0.52;;
17917;SDS011;9084;50.956;3.106;2023-07-29T12:17:26;0.80;;;0.73;;
17917;SDS011;9084;50.956;3.106;2023-07-29T12:19:53;1.23;;;0.80;;
17917;SDS011;9084;50.956;3.106;2023-07-29T12:22:20;1.77;;;0.95;;
17917;SDS011;9084;50.956;3.106;2023-07-29T12:24:49;1.40;;;0.82;;
17917;SDS011;9084;50.956;3.106;2023-07-29T12:27:19;1.65;;;0.63;;
17917;SDS011;9084;50.956;3.106;2023-07-29T12:29:47;2.33;;;0.93;;
17917;SDS011;9084;50.956;3.106;2023-07-29T12:32:15;1.30;;;0.70;;
17917;SDS011;9084;50.956;3.106;2023-07-29T12:34:40;1.45;;;0.70;;
17917;SDS011;9084;50.956;3.106;2023-07-29T12:37:08;1.08;;;0.88;;
17917;SDS011;9084;50.956;3.106;2023-07-29T12:39:35;0.90;;;0.52;;
17917;SDS011;9084;50.956;3.106;2023-07-29T12:42:07;0.50;;;0.50;;
17917;SDS011;9084;50.956;3.106;2023-07-29T12:44:34;0.73;;;0.47;;
17917;SDS011;9084;50.956;3.106;2023-07-29T12:47:01;0.60;;;0.52;;
17917;SDS011;9084;50.956;3.106;2023-07-29T12:49:28;0.63;;;0.60;;
17917;SDS011;9084;50.956;3.106;2023-07-29T12:51:54;1.10;;;0.60;;
17917;SDS011;9084;50.956;3.106;2023-07-29T12:54:24;0.50;;;0.50;;
17917;SDS011;9084;50.956;3.106;2023-07-29T12:56:52;0.77;;;0.73;;
17917;SDS011;9084;50.956;3.106;2023-07-29T12:59:17;1.17;;;1.08;;
17917;SDS011;9084;50.956;3.106;2023-07-29T13:01:43;1.67;;;1.00;;
17917;SDS011;9084;50.956;3.106;2023-07-29T13:04:12;1.25;;;0.98;;
17917;SDS011;9084;50.956;3.106;2023-07-29T13:06:37;1.33;;;1.05;;
17917;SDS011;9084;50.956;3.106;2023-07-29T13:09:08;2.13;;;0.95;;
17917;SDS011;9084;50.956;3.106;2023-07-29T13:11:34;1.23;;;0.77;;
17917;SDS011;9084;50.956;3.106;2023-07-29T13:14:00;1.00;;;0.80;;
17917;SDS011;9084;50.956;3.106;2023-07-29T13:16:26;0.80;;;0.80;;
17917;SDS011;9084;50.956;3.106;2023-07-29T13:18:56;1.42;;;0.57;;
17917;SDS011;9084;50.956;3.106;2023-07-29T13:21:22;0.50;;;0.40;;
17917;SDS011;9084;50.956;3.106;2023-07-29T13:23:48;0.50;;;0.30;;
17917;SDS011;9084;50.956;3.106;2023-07-29T13:26:14;0.50;;;0.43;;
17917;SDS011;9084;50.956;3.106;2023-07-29T13:28:40;0.40;;;0.40;;
17917;SDS011;9084;50.956;3.106;2023-07-29T13:31:05;0.57;;;0.40;;
17917;SDS011;9084;50.956;3.106;2023-07-29T13:33:31;0.70;;;0.35;;
17917;SDS011;9084;50.956;3.106;2023-07-29T13:35:59;0.50;;;0.45;;
17917;SDS011;9084;50.956;3.106;2023-07-29T13:38:29;0.60;;;0.40;;
17917;SDS011;9084;50.956;3.106;2023-07-29T13:40:55;0.30;;;0.30;;
17917;SDS011;9084;50.956;3.106;2023-07-29T13:43:23;0.45;;;0.40;;
17917;SDS011;9084;50.956;3.106;2023-07-29T13:45:51;0.63;;;0.40;;
17917;SDS011;9084;50.956;3.106;2023-07-29T13:48:19;1.42;;;0.70;;
17917;SDS011;9084;50.956;3.106;2023-07-29T13:50:47;2.22;;;0.40;;
17917;SDS011;9084;50.956;3.106;2023-07-29T13:53:13;1.65;;;0.50;;
17917;SDS011;9084;50.956;3.106;2023-07-29T13:55:41;1.10;;;0.70;;
17917;SDS011;9084;50.956;3.106;2023-07-29T13:58:07;0.90;;;0.50;;
17917;SDS011;9084;50.956;3.106;2023-07-29T14:00:32;0.85;;;0.65;;
17917;SDS011;9084;50.956;3.106;2023-07-29T14:02:58;1.25;;;0.80;;
17917;SDS011;9084;50.956;3.106;2023-07-29T14:05:26;2.28;;;0.75;;
17917;SDS011;9084;50.956;3.106;2023-07-29T14:07:52;2.20;;;0.85;;
17917;SDS011;9084;50.956;3.106;2023-07-29T14:10:17;1.90;;;0.95;;
17917;SDS011;9084;50.956;3.106;2023-07-29T14:12:45;1.13;;;0.63;;
17917;SDS011;9084;50.956;3.106;2023-07-29T14:15:13;2.33;;;0.90;;
17917;SDS011;9084;50.956;3.106;2023-07-29T14:17:39;2.30;;;1.10;;
17917;SDS011;9084;50.956;3.106;2023-07-29T14:20:09;2.45;;;0.93;;
17917;SDS011;9084;50.956;3.106;2023-07-29T14:22:38;3.65;;;1.17;;
17917;SDS011;9084;50.956;3.106;2023-07-29T14:25:03;3.65;;;1.25;;
17917;SDS011;9084;50.956;3.106;2023-07-29T14:27:29;1.85;;;0.98;;
17917;SDS011;9084;50.956;3.106;2023-07-29T14:29:55;2.35;;;0.90;;
17917;SDS011;9084;50.956;3.106;2023-07-29T14:32:21;3.65;;;1.42;;
17917;SDS011;9084;50.956;3.106;2023-07-29T14:34:49;3.55;;;1.52;;
17917;SDS011;9084;50.956;3.106;2023-07-29T14:37:17;4.25;;;1.38;;
17917;SDS011;9084;50.956;3.106;2023-07-29T14:39:47;2.92;;;1.10;;
17917;SDS011;9084;50.956;3.106;2023-07-29T14:42:15;2.53;;;1.20;;
17917;SDS011;9084;50.956;3.106;2023-07-29T14:44:40;1.50;;;1.20;;
17917;SDS011;9084;50.956;3.106;2023-07-29T14:47:07;2.75;;;1.10;;
17917;SDS011;9084;50.956;3.106;2023-07-29T14:49:33;3.33;;;1.20;;
17917;SDS011;9084;50.956;3.106;2023-07-29T14:51:58;3.30;;;1.30;;
17917;SDS011;9084;50.956;3.106;2023-07-29T14:54:24;3.67;;;1.77;;
17917;SDS011;9084;50.956;3.106;2023-07-29T14:56:50;2.55;;;1.33;;
17917;SDS011;9084;50.956;3.106;2023-07-29T14:59:15;4.90;;;1.10;;
17917;SDS011;9084;50.956;3.106;2023-07-29T15:01:41;1.83;;;1.33;;
17917;SDS011;9084;50.956;3.106;2023-07-29T15:04:07;2.67;;;1.25;;
17917;SDS011;9084;50.956;3.106;2023-07-29T15:06:32;3.60;;;1.38;;
17917;SDS011;9084;50.956;3.106;2023-07-29T15:09:00;4.22;;;1.60;;
17917;SDS011;9084;50.956;3.106;2023-07-29T15:11:26;4.15;;;1.52;;
17917;SDS011;9084;50.956;3.106;2023-07-29T15:13:54;2.58;;;1.45;;
17917;SDS011;9084;50.956;3.106;2023-07-29T15:16:22;3.17;;;1.13;;
17917;SDS011;9084;50.956;3.106;2023-07-29T15:18:53;3.15;;;1.48;;
17917;SDS011;9084;50.956;3.106;2023-07-29T15:21:19;5.07;;;1.55;;
17917;SDS011;9084;50.956;3.106;2023-07-29T15:23:49;4.47;;;1.50;;